sensor_id;sensor_type;location;lat;lon;timestamp;P1;durP1;ratioP1;P2;durP2;ratioP2
63112;SDS011;49206;48.020;21.378;2023-02-24T00:01:39;67.47;;;33.75;;
63112;SDS011;49206;48.020;21.378;2023-02-24T00:02:42;74.00;;;35.92;;
63112;SDS011;49206;48.020;21.378;2023-02-24T00:03:44;66.43;;;36.25;;
63112;SDS011;49206;48.020;21.378;2023-02-24T00:04:47;65.72;;;32.88;;
63112;SDS011;49206;48.020;21.378;2023-02-24T00:05:53;78.00;;;35.22;;
63112;SDS011;49206;48.020;21.378;2023-02-24T00:06:56;71.15;;;33.53;;
63112;SDS011;49206;48.020;21.378;2023-02-24T00:07:58;72.97;;;33.40;;
63112;SDS011;49206;48.020;21.378;2023-02-24T00:09:02;70.22;;;34.45;;
63112;SDS011;49206;48.020;21.378;2023-02-24T00:10:16;71.57;;;33.33;;
63112;SDS011;49206;48.020;21.378;2023-02-24T00:11:20;71.60;;;35.17;;
63112;SDS011;49206;48.020;21.378;2023-02-24T00:12:24;63.67;;;33.97;;
63112;SDS011;49206;48.020;21.378;2023-02-24T00:13:28;71.60;;;35.22;;
63112;SDS011;49206;48.020;21.378;2023-02-24T00:14:32;71.28;;;34.60;;
63112;SDS011;49206;48.020;21.378;2023-02-24T00:15:37;67.05;;;34.80;;
63112;SDS011;49206;48.020;21.378;2023-02-24T00:16:39;65.40;;;32.92;;
63112;SDS011;49206;48.020;21.378;2023-02-24T00:17:42;65.85;;;36.00;;
63112;SDS011;49206;48.020;21.378;2023-02-24T00:18:46;67.72;;;34.15;;
63112;SDS011;49206;48.020;21.378;2023-02-24T00:19:49;68.00;;;37.03;;
63112;SDS011;49206;48.020;21.378;2023-02-24T00:20:52;67.05;;;34.35;;
63112;SDS011;49206;48.020;21.378;2023-02-24T00:21:57;64.90;;;33.92;;
63112;SDS011;49206;48.020;21.378;2023-02-24T00:23:01;71.15;;;35.25;;
63112;SDS011;49206;48.020;21.378;2023-02-24T00:24:04;66.97;;;34.95;;
63112;SDS011;49206;48.020;21.378;2023-02-24T00:25:07;66.50;;;33.50;;
63112;SDS011;49206;48.020;21.378;2023-02-24T00:26:11;64.28;;;33.60;;
63112;SDS011;49206;48.020;21.378;2023-02-24T00:27:14;67.03;;;34.25;;
63112;SDS011;49206;48.020;21.378;2023-02-24T00:28:18;70.70;;;36.67;;
63112;SDS011;49206;48.020;21.378;2023-02-24T00:29:20;62.47;;;34.58;;
63112;SDS011;49206;48.020;21.378;2023-02-24T00:30:27;63.72;;;34.85;;
63112;SDS011;49206;48.020;21.378;2023-02-24T00:31:31;62.53;;;33.67;;
63112;SDS011;49206;48.020;21.378;2023-02-24T00:32:34;62.75;;;34.20;;
63112;SDS011;49206;48.020;21.378;2023-02-24T00:33:37;57.47;;;32.65;;
63112;SDS011;49206;48.020;21.378;2023-02-24T00:34:40;66.15;;;35.25;;
63112;SDS011;49206;48.020;21.378;2023-02-24T00:35:44;60.55;;;33.58;;
63112;SDS011;49206;48.020;21.378;2023-02-24T00:36:47;64.22;;;33.88;;
63112;SDS011;49206;48.020;21.378;2023-02-24T00:37:50;64.18;;;34.58;;
63112;SDS011;49206;48.020;21.378;2023-02-24T00:38:56;67.32;;;34.00;;
63112;SDS011;49206;48.020;21.378;2023-02-24T00:40:00;68.57;;;34.63;;
63112;SDS011;49206;48.020;21.378;2023-02-24T00:41:07;63.10;;;34.67;;
63112;SDS011;49206;48.020;21.378;2023-02-24T00:42:13;66.03;;;33.80;;
63112;SDS011;49206;48.020;21.378;2023-02-24T00:43:15;66.68;;;34.85;;
63112;SDS011;49206;48.020;21.378;2023-02-24T00:44:18;60.35;;;33.22;;
63112;SDS011;49206;48.020;21.378;2023-02-24T00:45:20;68.20;;;34.35;;
63112;SDS011;49206;48.020;21.378;2023-02-24T00:46:23;61.58;;;35.63;;
63112;SDS011;49206;48.020;21.378;2023-02-24T00:47:27;64.28;;;34.63;;
63112;SDS011;49206;48.020;21.378;2023-02-24T00:48:30;63.72;;;33.45;;
63112;SDS011;49206;48.020;21.378;2023-02-24T00:49:32;59.65;;;34.03;;
63112;SDS011;49206;48.020;21.378;2023-02-24T00:50:43;62.42;;;34.97;;
63112;SDS011;49206;48.020;21.378;2023-02-24T00:51:47;67.32;;;34.65;;
63112;SDS011;49206;48.020;21.378;2023-02-24T00:52:50;65.20;;;34.90;;
63112;SDS011;49206;48.020;21.378;2023-02-24T00:53:54;62.10;;;35.50;;
63112;SDS011;49206;48.020;21.378;2023-02-24T00:54:57;66.25;;;34.65;;
63112;SDS011;49206;48.020;21.378;2023-02-24T00:56:06;70.38;;;35.80;;
63112;SDS011;49206;48.020;21.378;2023-02-24T00:57:13;64.45;;;36.47;;
63112;SDS011;49206;48.020;21.378;2023-02-24T00:58:19;66.40;;;34.75;;
63112;SDS011;49206;48.020;21.378;2023-02-24T00:59:22;70.38;;;35.22;;
63112;SDS011;49206;48.020;21.378;2023-02-24T01:00:25;65.60;;;35.65;;
63112;SDS011;49206;48.020;21.378;2023-02-24T01:01:31;62.45;;;33.88;;
63112;SDS011;49206;48.020;21.378;2023-02-24T01:02:35;65.57;;;34.13;;
63112;SDS011;49206;48.020;21.378;2023-02-24T01:03:39;67.93;;;34.38;;
63112;SDS011;49206;48.020;21.378;2023-02-24T01:04:43;63.75;;;34.25;;
63112;SDS011;49206;48.020;21.378;2023-02-24T01:05:47;60.30;;;33.25;;
63112;SDS011;49206;48.020;21.378;2023-02-24T01:06:50;62.05;;;33.17;;
63112;SDS011;49206;48.020;21.378;2023-02-24T01:08:01;68.35;;;35.85;;
63112;SDS011;49206;48.020;21.378;2023-02-24T01:09:04;64.10;;;35.60;;
63112;SDS011;49206;48.020;21.378;2023-02-24T01:10:09;60.53;;;32.60;;
63112;SDS011;49206;48.020;21.378;2023-02-24T01:11:13;65.95;;;34.58;;
63112;SDS011;49206;48.020;21.378;2023-02-24T01:12:39;62.15;;;33.80;;
63112;SDS011;49206;48.020;21.378;2023-02-24T01:13:50;63.40;;;34.45;;
63112;SDS011;49206;48.020;21.378;2023-02-24T01:14:52;65.05;;;33.83;;
63112;SDS011;49206;48.020;21.378;2023-02-24T01:15:59;70.10;;;35.95;;
63112;SDS011;49206;48.020;21.378;2023-02-24T01:17:05;65.70;;;35.50;;
63112;SDS011;49206;48.020;21.378;2023-02-24T01:18:09;64.47;;;34.92;;
63112;SDS011;49206;48.020;21.378;2023-02-24T01:19:12;66.20;;;34.90;;
63112;SDS011;49206;48.020;21.378;2023-02-24T01:20:15;64.68;;;34.67;;
63112;SDS011;49206;48.020;21.378;2023-02-24T01:21:19;68.93;;;36.38;;
63112;SDS011;49206;48.020;21.378;2023-02-24T01:22:22;64.50;;;34.92;;
63112;SDS011;49206;48.020;21.378;2023-02-24T01:23:25;65.97;;;35.45;;
63112;SDS011;49206;48.020;21.378;2023-02-24T01:24:29;68.97;;;35.63;;
63112;SDS011;49206;48.020;21.378;2023-02-24T01:25:33;66.93;;;36.17;;
63112;SDS011;49206;48.020;21.378;2023-02-24T01:26:36;66.68;;;35.28;;
63112;SDS011;49206;48.020;21.378;2023-02-24T01:27:40;70.22;;;35.95;;
63112;SDS011;49206;48.020;21.378;2023-02-24T01:28:43;70.60;;;36.40;;
63112;SDS011;49206;48.020;21.378;2023-02-24T01:29:51;67.22;;;35.15;;
63112;SDS011;49206;48.020;21.378;2023-02-24T01:30:54;63.85;;;37.00;;
63112;SDS011;49206;48.020;21.378;2023-02-24T01:32:02;67.72;;;35.28;;
63112;SDS011;49206;48.020;21.378;2023-02-24T01:33:05;67.93;;;35.00;;
63112;SDS011;49206;48.020;21.378;2023-02-24T01:34:09;63.97;;;34.50;;
63112;SDS011;49206;48.020;21.378;2023-02-24T01:35:13;72.88;;;36.22;;
63112;SDS011;49206;48.020;21.378;2023-02-24T01:36:17;63.08;;;34.95;;
63112;SDS011;49206;48.020;21.378;2023-02-24T01:37:22;66.22;;;34.72;;
63112;SDS011;49206;48.020;21.378;2023-02-24T01:38:25;65.93;;;34.40;;
63112;SDS011;49206;48.020;21.378;2023-02-24T01:39:27;63.92;;;35.33;;
63112;SDS011;49206;48.020;21.378;2023-02-24T01:40:30;71.53;;;35.00;;
63112;SDS011;49206;48.020;21.378;2023-02-24T01:41:33;66.63;;;35.55;;
63112;SDS011;49206;48.020;21.378;2023-02-24T01:42:36;69.22;;;35.17;;
63112;SDS011;49206;48.020;21.378;2023-02-24T01:45:12;70.50;;;36.83;;
63112;SDS011;49206;48.020;21.378;2023-02-24T01:46:16;71.22;;;37.25;;
63112;SDS011;49206;48.020;21.378;2023-02-24T01:47:24;71.35;;;35.50;;
63112;SDS011;49206;48.020;21.378;2023-02-24T01:48:31;77.10;;;39.05;;
63112;SDS011;49206;48.020;21.378;2023-02-24T01:49:35;76.28;;;37.10;;
63112;SDS011;49206;48.020;21.378;2023-02-24T01:50:41;71.00;;;36.97;;
63112;SDS011;49206;48.020;21.378;2023-02-24T01:52:51;61.70;;;33.50;;
63112;SDS011;49206;48.020;21.378;2023-02-24T01:53:59;69.22;;;35.85;;
63112;SDS011;49206;48.020;21.378;2023-02-24T01:55:07;63.65;;;34.63;;
63112;SDS011;49206;48.020;21.378;2023-02-24T01:56:25;66.47;;;34.13;;
63112;SDS011;49206;48.020;21.378;2023-02-24T01:57:31;72.03;;;35.47;;
63112;SDS011;49206;48.020;21.378;2023-02-24T01:58:37;63.58;;;35.75;;
63112;SDS011;49206;48.020;21.378;2023-02-24T01:59:39;69.35;;;36.38;;
63112;SDS011;49206;48.020;21.378;2023-02-24T02:00:42;74.05;;;36.53;;
63112;SDS011;49206;48.020;21.378;2023-02-24T02:01:48;73.00;;;37.58;;
63112;SDS011;49206;48.020;21.378;2023-02-24T02:02:55;72.55;;;36.75;;
63112;SDS011;49206;48.020;21.378;2023-02-24T02:04:00;70.68;;;37.13;;
63112;SDS011;49206;48.020;21.378;2023-02-24T02:05:07;69.28;;;36.75;;
63112;SDS011;49206;48.020;21.378;2023-02-24T02:06:11;62.83;;;36.03;;
63112;SDS011;49206;48.020;21.378;2023-02-24T02:07:15;68.78;;;35.80;;
63112;SDS011;49206;48.020;21.378;2023-02-24T02:08:21;64.97;;;36.15;;
63112;SDS011;49206;48.020;21.378;2023-02-24T02:09:27;67.82;;;35.55;;
63112;SDS011;49206;48.020;21.378;2023-02-24T02:10:31;73.07;;;36.58;;
63112;SDS011;49206;48.020;21.378;2023-02-24T02:11:37;70.50;;;34.38;;
63112;SDS011;49206;48.020;21.378;2023-02-24T02:12:40;71.72;;;35.85;;
63112;SDS011;49206;48.020;21.378;2023-02-24T02:13:47;62.60;;;35.90;;
63112;SDS011;49206;48.020;21.378;2023-02-24T02:14:54;69.40;;;35.08;;
63112;SDS011;49206;48.020;21.378;2023-02-24T02:16:05;71.35;;;37.35;;
63112;SDS011;49206;48.020;21.378;2023-02-24T02:21:53;66.07;;;36.22;;
63112;SDS011;49206;48.020;21.378;2023-02-24T02:23:18;61.67;;;33.13;;
63112;SDS011;49206;48.020;21.378;2023-02-24T02:26:13;65.72;;;33.92;;
63112;SDS011;49206;48.020;21.378;2023-02-24T02:29:10;57.90;;;31.70;;
63112;SDS011;49206;48.020;21.378;2023-02-24T02:36:02;66.95;;;33.00;;
63112;SDS011;49206;48.020;21.378;2023-02-24T02:37:30;64.95;;;34.63;;
63112;SDS011;49206;48.020;21.378;2023-02-24T02:43:05;68.38;;;35.00;;
63112;SDS011;49206;48.020;21.378;2023-02-24T02:44:20;67.32;;;34.67;;
63112;SDS011;49206;48.020;21.378;2023-02-24T02:46:15;66.72;;;34.50;;
63112;SDS011;49206;48.020;21.378;2023-02-24T02:47:01;76.47;;;37.17;;
63112;SDS011;49206;48.020;21.378;2023-02-24T02:48:33;70.10;;;36.15;;
63112;SDS011;49206;48.020;21.378;2023-02-24T02:50:11;70.70;;;35.88;;
63112;SDS011;49206;48.020;21.378;2023-02-24T02:51:34;70.22;;;35.20;;
63112;SDS011;49206;48.020;21.378;2023-02-24T02:52:44;69.20;;;36.15;;
63112;SDS011;49206;48.020;21.378;2023-02-24T02:53:59;75.07;;;36.33;;
63112;SDS011;49206;48.020;21.378;2023-02-24T02:55:14;65.00;;;34.47;;
63112;SDS011;49206;48.020;21.378;2023-02-24T02:56:45;70.05;;;35.38;;
63112;SDS011;49206;48.020;21.378;2023-02-24T02:57:50;71.32;;;36.13;;
63112;SDS011;49206;48.020;21.378;2023-02-24T02:58:56;69.25;;;34.85;;
63112;SDS011;49206;48.020;21.378;2023-02-24T03:01:16;68.22;;;34.90;;
63112;SDS011;49206;48.020;21.378;2023-02-24T03:02:24;63.75;;;34.50;;
63112;SDS011;49206;48.020;21.378;2023-02-24T03:03:31;70.18;;;35.05;;
63112;SDS011;49206;48.020;21.378;2023-02-24T03:04:45;65.05;;;34.63;;
63112;SDS011;49206;48.020;21.378;2023-02-24T03:05:59;67.20;;;34.10;;
63112;SDS011;49206;48.020;21.378;2023-02-24T03:07:06;64.00;;;32.75;;
63112;SDS011;49206;48.020;21.378;2023-02-24T03:08:12;64.40;;;32.72;;
63112;SDS011;49206;48.020;21.378;2023-02-24T03:09:22;64.90;;;33.63;;
63112;SDS011;49206;48.020;21.378;2023-02-24T03:10:28;60.10;;;31.10;;
63112;SDS011;49206;48.020;21.378;2023-02-24T03:11:36;58.55;;;31.33;;
63112;SDS011;49206;48.020;21.378;2023-02-24T03:12:40;69.68;;;35.20;;
63112;SDS011;49206;48.020;21.378;2023-02-24T03:13:43;62.70;;;32.95;;
63112;SDS011;49206;48.020;21.378;2023-02-24T03:14:51;70.82;;;35.60;;
63112;SDS011;49206;48.020;21.378;2023-02-24T03:16:00;55.95;;;32.25;;
63112;SDS011;49206;48.020;21.378;2023-02-24T03:17:13;61.30;;;33.83;;
63112;SDS011;49206;48.020;21.378;2023-02-24T03:18:24;68.53;;;33.83;;
63112;SDS011;49206;48.020;21.378;2023-02-24T03:19:34;59.80;;;31.73;;
63112;SDS011;49206;48.020;21.378;2023-02-24T03:20:43;60.65;;;32.28;;
63112;SDS011;49206;48.020;21.378;2023-02-24T03:21:51;53.17;;;28.23;;
63112;SDS011;49206;48.020;21.378;2023-02-24T03:23:11;56.40;;;29.33;;
63112;SDS011;49206;48.020;21.378;2023-02-24T03:24:19;52.45;;;27.95;;
63112;SDS011;49206;48.020;21.378;2023-02-24T03:25:28;48.00;;;27.05;;
63112;SDS011;49206;48.020;21.378;2023-02-24T03:27:59;50.15;;;26.88;;
63112;SDS011;49206;48.020;21.378;2023-02-24T03:30:17;49.05;;;26.25;;
63112;SDS011;49206;48.020;21.378;2023-02-24T03:31:25;41.28;;;23.40;;
63112;SDS011;49206;48.020;21.378;2023-02-24T03:32:38;42.70;;;22.85;;
63112;SDS011;49206;48.020;21.378;2023-02-24T03:34:01;46.83;;;23.77;;
63112;SDS011;49206;48.020;21.378;2023-02-24T03:36:16;49.08;;;24.55;;
63112;SDS011;49206;48.020;21.378;2023-02-24T03:37:19;40.97;;;23.05;;
63112;SDS011;49206;48.020;21.378;2023-02-24T03:39:33;43.38;;;21.77;;
63112;SDS011;49206;48.020;21.378;2023-02-24T03:40:46;41.70;;;21.25;;
63112;SDS011;49206;48.020;21.378;2023-02-24T03:41:59;43.90;;;22.42;;
63112;SDS011;49206;48.020;21.378;2023-02-24T03:43:30;44.88;;;22.88;;
63112;SDS011;49206;48.020;21.378;2023-02-24T03:44:36;44.58;;;25.65;;
63112;SDS011;49206;48.020;21.378;2023-02-24T03:45:38;54.35;;;26.55;;
63112;SDS011;49206;48.020;21.378;2023-02-24T03:46:42;41.78;;;24.60;;
63112;SDS011;49206;48.020;21.378;2023-02-24T03:47:45;45.75;;;25.58;;
63112;SDS011;49206;48.020;21.378;2023-02-24T03:48:53;47.38;;;25.30;;
63112;SDS011;49206;48.020;21.378;2023-02-24T03:50:08;43.22;;;24.73;;
63112;SDS011;49206;48.020;21.378;2023-02-24T03:51:19;45.72;;;23.98;;
63112;SDS011;49206;48.020;21.378;2023-02-24T03:58:19;45.10;;;24.75;;
63112;SDS011;49206;48.020;21.378;2023-02-24T04:00:01;46.40;;;25.65;;
63112;SDS011;49206;48.020;21.378;2023-02-24T04:02:58;47.53;;;25.88;;
63112;SDS011;49206;48.020;21.378;2023-02-24T04:06:23;46.17;;;25.98;;
63112;SDS011;49206;48.020;21.378;2023-02-24T04:07:48;55.80;;;28.40;;
63112;SDS011;49206;48.020;21.378;2023-02-24T04:09:03;48.67;;;26.05;;
63112;SDS011;49206;48.020;21.378;2023-02-24T04:10:30;55.05;;;26.42;;
63112;SDS011;49206;48.020;21.378;2023-02-24T04:11:43;54.92;;;26.85;;
63112;SDS011;49206;48.020;21.378;2023-02-24T04:12:54;58.58;;;28.42;;
63112;SDS011;49206;48.020;21.378;2023-02-24T04:14:07;53.20;;;27.45;;
63112;SDS011;49206;48.020;21.378;2023-02-24T04:16:37;52.35;;;27.35;;
63112;SDS011;49206;48.020;21.378;2023-02-24T04:17:47;54.97;;;29.05;;
63112;SDS011;49206;48.020;21.378;2023-02-24T04:18:58;51.10;;;27.95;;
63112;SDS011;49206;48.020;21.378;2023-02-24T04:20:11;56.05;;;30.05;;
63112;SDS011;49206;48.020;21.378;2023-02-24T04:21:33;50.25;;;27.58;;
63112;SDS011;49206;48.020;21.378;2023-02-24T04:22:39;46.13;;;27.08;;
63112;SDS011;49206;48.020;21.378;2023-02-24T04:23:45;49.75;;;26.35;;
63112;SDS011;49206;48.020;21.378;2023-02-24T04:25:53;50.17;;;25.98;;
63112;SDS011;49206;48.020;21.378;2023-02-24T04:27:00;53.53;;;26.98;;
63112;SDS011;49206;48.020;21.378;2023-02-24T04:28:07;48.60;;;26.65;;
63112;SDS011;49206;48.020;21.378;2023-02-24T04:29:16;45.35;;;26.23;;
63112;SDS011;49206;48.020;21.378;2023-02-24T04:30:26;51.10;;;28.38;;
63112;SDS011;49206;48.020;21.378;2023-02-24T04:31:35;48.72;;;27.13;;
63112;SDS011;49206;48.020;21.378;2023-02-24T04:32:40;53.53;;;28.48;;
63112;SDS011;49206;48.020;21.378;2023-02-24T04:33:46;52.05;;;27.95;;
63112;SDS011;49206;48.020;21.378;2023-02-24T04:35:02;50.35;;;27.13;;
63112;SDS011;49206;48.020;21.378;2023-02-24T04:36:12;49.30;;;27.13;;
63112;SDS011;49206;48.020;21.378;2023-02-24T04:37:16;52.92;;;28.33;;
63112;SDS011;49206;48.020;21.378;2023-02-24T04:38:24;55.13;;;29.80;;
63112;SDS011;49206;48.020;21.378;2023-02-24T04:39:27;58.53;;;28.65;;
63112;SDS011;49206;48.020;21.378;2023-02-24T04:40:33;61.92;;;28.17;;
63112;SDS011;49206;48.020;21.378;2023-02-24T04:41:37;49.90;;;28.13;;
63112;SDS011;49206;48.020;21.378;2023-02-24T04:42:40;54.60;;;29.17;;
63112;SDS011;49206;48.020;21.378;2023-02-24T04:43:47;49.40;;;28.30;;
63112;SDS011;49206;48.020;21.378;2023-02-24T04:44:54;56.95;;;28.63;;
63112;SDS011;49206;48.020;21.378;2023-02-24T04:45:59;54.00;;;28.90;;
63112;SDS011;49206;48.020;21.378;2023-02-24T04:47:02;55.63;;;28.10;;
63112;SDS011;49206;48.020;21.378;2023-02-24T04:48:04;49.10;;;28.92;;
63112;SDS011;49206;48.020;21.378;2023-02-24T04:49:13;53.38;;;29.00;;
63112;SDS011;49206;48.020;21.378;2023-02-24T04:50:18;46.63;;;28.02;;
63112;SDS011;49206;48.020;21.378;2023-02-24T04:51:25;58.22;;;30.15;;
63112;SDS011;49206;48.020;21.378;2023-02-24T04:52:27;55.50;;;30.48;;
63112;SDS011;49206;48.020;21.378;2023-02-24T04:53:29;55.42;;;30.02;;
63112;SDS011;49206;48.020;21.378;2023-02-24T04:54:32;55.30;;;30.17;;
63112;SDS011;49206;48.020;21.378;2023-02-24T04:55:37;56.80;;;30.98;;
63112;SDS011;49206;48.020;21.378;2023-02-24T04:56:42;63.13;;;30.58;;
63112;SDS011;49206;48.020;21.378;2023-02-24T04:57:46;59.55;;;30.73;;
63112;SDS011;49206;48.020;21.378;2023-02-24T04:58:48;54.17;;;31.05;;
63112;SDS011;49206;48.020;21.378;2023-02-24T04:59:51;59.80;;;29.58;;
63112;SDS011;49206;48.020;21.378;2023-02-24T05:00:54;61.47;;;31.00;;
63112;SDS011;49206;48.020;21.378;2023-02-24T05:01:57;57.05;;;29.10;;
63112;SDS011;49206;48.020;21.378;2023-02-24T05:03:03;54.45;;;29.90;;
63112;SDS011;49206;48.020;21.378;2023-02-24T05:04:06;56.95;;;29.25;;
63112;SDS011;49206;48.020;21.378;2023-02-24T05:05:10;51.92;;;28.42;;
63112;SDS011;49206;48.020;21.378;2023-02-24T05:06:13;47.22;;;27.95;;
63112;SDS011;49206;48.020;21.378;2023-02-24T05:07:17;55.22;;;29.83;;
63112;SDS011;49206;48.020;21.378;2023-02-24T05:08:19;53.83;;;28.27;;
63112;SDS011;49206;48.020;21.378;2023-02-24T05:09:22;50.33;;;28.67;;
63112;SDS011;49206;48.020;21.378;2023-02-24T05:10:25;52.58;;;28.52;;
63112;SDS011;49206;48.020;21.378;2023-02-24T05:11:29;45.85;;;26.67;;
63112;SDS011;49206;48.020;21.378;2023-02-24T05:12:36;44.03;;;23.75;;
63112;SDS011;49206;48.020;21.378;2023-02-24T05:13:41;46.78;;;24.83;;
63112;SDS011;49206;48.020;21.378;2023-02-24T05:14:47;46.95;;;25.38;;
63112;SDS011;49206;48.020;21.378;2023-02-24T05:15:50;49.50;;;24.48;;
63112;SDS011;49206;48.020;21.378;2023-02-24T05:16:52;42.50;;;24.55;;
63112;SDS011;49206;48.020;21.378;2023-02-24T05:18:02;40.40;;;23.88;;
63112;SDS011;49206;48.020;21.378;2023-02-24T05:19:09;48.75;;;25.58;;
63112;SDS011;49206;48.020;21.378;2023-02-24T05:20:31;46.25;;;24.55;;
63112;SDS011;49206;48.020;21.378;2023-02-24T05:21:52;45.45;;;22.95;;
63112;SDS011;49206;48.020;21.378;2023-02-24T05:22:54;41.20;;;23.45;;
63112;SDS011;49206;48.020;21.378;2023-02-24T05:23:57;45.42;;;23.38;;
63112;SDS011;49206;48.020;21.378;2023-02-24T05:25:00;41.28;;;23.58;;
63112;SDS011;49206;48.020;21.378;2023-02-24T05:26:03;43.38;;;23.85;;
63112;SDS011;49206;48.020;21.378;2023-02-24T05:27:10;42.78;;;23.60;;
63112;SDS011;49206;48.020;21.378;2023-02-24T05:28:13;41.00;;;21.65;;
63112;SDS011;49206;48.020;21.378;2023-02-24T05:29:15;41.70;;;23.52;;
63112;SDS011;49206;48.020;21.378;2023-02-24T05:30:23;44.25;;;24.13;;
63112;SDS011;49206;48.020;21.378;2023-02-24T05:31:27;45.42;;;24.30;;
63112;SDS011;49206;48.020;21.378;2023-02-24T05:32:31;41.85;;;23.30;;
63112;SDS011;49206;48.020;21.378;2023-02-24T05:33:36;46.30;;;23.70;;
63112;SDS011;49206;48.020;21.378;2023-02-24T05:34:39;43.35;;;23.98;;
63112;SDS011;49206;48.020;21.378;2023-02-24T05:36:46;42.50;;;22.58;;
63112;SDS011;49206;48.020;21.378;2023-02-24T05:37:50;39.85;;;22.90;;
63112;SDS011;49206;48.020;21.378;2023-02-24T05:38:53;35.95;;;24.00;;
63112;SDS011;49206;48.020;21.378;2023-02-24T05:39:59;43.85;;;25.08;;
63112;SDS011;49206;48.020;21.378;2023-02-24T05:41:08;47.33;;;23.67;;
63112;SDS011;49206;48.020;21.378;2023-02-24T05:42:19;41.63;;;22.70;;
63112;SDS011;49206;48.020;21.378;2023-02-24T05:43:22;44.13;;;22.90;;
63112;SDS011;49206;48.020;21.378;2023-02-24T05:44:27;48.10;;;23.80;;
63112;SDS011;49206;48.020;21.378;2023-02-24T05:45:29;42.45;;;22.92;;
63112;SDS011;49206;48.020;21.378;2023-02-24T05:46:32;38.22;;;21.30;;
63112;SDS011;49206;48.020;21.378;2023-02-24T05:47:37;39.78;;;23.15;;
63112;SDS011;49206;48.020;21.378;2023-02-24T05:48:41;44.33;;;23.15;;
63112;SDS011;49206;48.020;21.378;2023-02-24T05:49:44;40.55;;;22.02;;
63112;SDS011;49206;48.020;21.378;2023-02-24T05:50:51;41.22;;;21.75;;
63112;SDS011;49206;48.020;21.378;2023-02-24T05:51:56;35.33;;;21.38;;
63112;SDS011;49206;48.020;21.378;2023-02-24T05:53:01;40.70;;;21.05;;
63112;SDS011;49206;48.020;21.378;2023-02-24T05:54:05;39.72;;;22.27;;
63112;SDS011;49206;48.020;21.378;2023-02-24T05:55:08;40.13;;;21.65;;
63112;SDS011;49206;48.020;21.378;2023-02-24T05:56:15;43.15;;;23.27;;
63112;SDS011;49206;48.020;21.378;2023-02-24T05:57:20;52.05;;;25.33;;
63112;SDS011;49206;48.020;21.378;2023-02-24T05:58:25;46.08;;;23.85;;
63112;SDS011;49206;48.020;21.378;2023-02-24T05:59:30;42.75;;;23.52;;
63112;SDS011;49206;48.020;21.378;2023-02-24T06:00:34;45.28;;;25.00;;
63112;SDS011;49206;48.020;21.378;2023-02-24T06:01:40;47.72;;;25.60;;
63112;SDS011;49206;48.020;21.378;2023-02-24T06:02:43;42.17;;;24.63;;
63112;SDS011;49206;48.020;21.378;2023-02-24T06:03:51;49.58;;;24.17;;
63112;SDS011;49206;48.020;21.378;2023-02-24T06:04:55;43.97;;;22.65;;
63112;SDS011;49206;48.020;21.378;2023-02-24T06:06:00;37.20;;;22.55;;
63112;SDS011;49206;48.020;21.378;2023-02-24T06:08:14;43.55;;;25.73;;
63112;SDS011;49206;48.020;21.378;2023-02-24T06:09:17;43.88;;;23.95;;
63112;SDS011;49206;48.020;21.378;2023-02-24T06:10:24;42.83;;;23.00;;
63112;SDS011;49206;48.020;21.378;2023-02-24T06:11:26;44.25;;;25.00;;
63112;SDS011;49206;48.020;21.378;2023-02-24T06:12:30;46.55;;;25.65;;
63112;SDS011;49206;48.020;21.378;2023-02-24T06:13:35;45.90;;;24.50;;
63112;SDS011;49206;48.020;21.378;2023-02-24T06:14:38;49.03;;;25.40;;
63112;SDS011;49206;48.020;21.378;2023-02-24T06:15:41;48.25;;;25.80;;
63112;SDS011;49206;48.020;21.378;2023-02-24T06:16:51;50.88;;;25.60;;
63112;SDS011;49206;48.020;21.378;2023-02-24T06:17:53;49.92;;;26.17;;
63112;SDS011;49206;48.020;21.378;2023-02-24T06:18:57;49.85;;;25.52;;
63112;SDS011;49206;48.020;21.378;2023-02-24T06:20:00;47.83;;;24.40;;
63112;SDS011;49206;48.020;21.378;2023-02-24T06:21:02;53.30;;;25.02;;
63112;SDS011;49206;48.020;21.378;2023-02-24T06:22:05;48.05;;;27.00;;
63112;SDS011;49206;48.020;21.378;2023-02-24T06:23:12;42.10;;;25.73;;
63112;SDS011;49206;48.020;21.378;2023-02-24T06:24:18;45.85;;;26.27;;
63112;SDS011;49206;48.020;21.378;2023-02-24T06:25:20;52.90;;;27.98;;
63112;SDS011;49206;48.020;21.378;2023-02-24T06:26:27;47.65;;;26.75;;
63112;SDS011;49206;48.020;21.378;2023-02-24T06:27:34;47.42;;;25.45;;
63112;SDS011;49206;48.020;21.378;2023-02-24T06:28:40;49.70;;;26.42;;
63112;SDS011;49206;48.020;21.378;2023-02-24T06:29:47;50.10;;;28.27;;
63112;SDS011;49206;48.020;21.378;2023-02-24T06:30:51;45.70;;;26.48;;
63112;SDS011;49206;48.020;21.378;2023-02-24T06:31:54;51.42;;;29.05;;
63112;SDS011;49206;48.020;21.378;2023-02-24T06:32:58;48.38;;;23.42;;
63112;SDS011;49206;48.020;21.378;2023-02-24T06:34:01;47.13;;;25.27;;
63112;SDS011;49206;48.020;21.378;2023-02-24T06:35:03;47.50;;;25.80;;
63112;SDS011;49206;48.020;21.378;2023-02-24T06:36:07;47.05;;;25.58;;
63112;SDS011;49206;48.020;21.378;2023-02-24T06:37:10;42.13;;;26.27;;
63112;SDS011;49206;48.020;21.378;2023-02-24T06:38:14;50.33;;;26.23;;
63112;SDS011;49206;48.020;21.378;2023-02-24T06:39:17;44.55;;;27.02;;
63112;SDS011;49206;48.020;21.378;2023-02-24T06:40:20;56.17;;;29.33;;
63112;SDS011;49206;48.020;21.378;2023-02-24T06:41:23;51.40;;;27.25;;
63112;SDS011;49206;48.020;21.378;2023-02-24T06:42:31;47.85;;;28.05;;
63112;SDS011;49206;48.020;21.378;2023-02-24T06:43:36;50.13;;;25.50;;
63112;SDS011;49206;48.020;21.378;2023-02-24T06:44:44;49.97;;;26.95;;
63112;SDS011;49206;48.020;21.378;2023-02-24T06:45:47;47.67;;;25.70;;
63112;SDS011;49206;48.020;21.378;2023-02-24T06:46:51;47.60;;;26.90;;
63112;SDS011;49206;48.020;21.378;2023-02-24T06:47:53;45.03;;;26.60;;
63112;SDS011;49206;48.020;21.378;2023-02-24T06:48:56;46.70;;;25.35;;
63112;SDS011;49206;48.020;21.378;2023-02-24T06:49:59;43.15;;;24.98;;
63112;SDS011;49206;48.020;21.378;2023-02-24T06:51:05;54.13;;;27.13;;
63112;SDS011;49206;48.020;21.378;2023-02-24T06:52:20;45.88;;;27.10;;
63112;SDS011;49206;48.020;21.378;2023-02-24T06:53:22;45.13;;;26.02;;
63112;SDS011;49206;48.020;21.378;2023-02-24T06:54:27;51.72;;;26.75;;
63112;SDS011;49206;48.020;21.378;2023-02-24T06:55:31;50.70;;;28.42;;
63112;SDS011;49206;48.020;21.378;2023-02-24T06:56:36;46.15;;;26.27;;
63112;SDS011;49206;48.020;21.378;2023-02-24T06:57:40;51.30;;;27.23;;
63112;SDS011;49206;48.020;21.378;2023-02-24T06:58:46;48.92;;;26.60;;
63112;SDS011;49206;48.020;21.378;2023-02-24T06:59:51;47.58;;;25.83;;
63112;SDS011;49206;48.020;21.378;2023-02-24T07:00:56;53.13;;;25.50;;
63112;SDS011;49206;48.020;21.378;2023-02-24T07:01:59;58.53;;;28.25;;
63112;SDS011;49206;48.020;21.378;2023-02-24T07:03:09;57.50;;;29.55;;
63112;SDS011;49206;48.020;21.378;2023-02-24T07:04:18;65.80;;;30.40;;
63112;SDS011;49206;48.020;21.378;2023-02-24T07:05:22;65.13;;;31.77;;
63112;SDS011;49206;48.020;21.378;2023-02-24T07:07:30;50.17;;;28.10;;